Time;durP1;ratioP1;P1;durP2;ratioP2;P2;SDS_P1;SDS_P2;PMS_P1;PMS_P2;Temp;Humidity;BMP_temperature;BMP_pressure;BME280_temperature;BME280_humidity;BME280_pressure;Samples;Min_cycle;Max_cycle;Signal;HPM_P1;HPM_P2
2022/06/18 00:02:00;;;;;;;8.63;4.67;;;;;;;14.84;64.51;100871.00;2170647;81;31812;-65
2022/06/18 00:05:02;;;;;;;6.62;4.97;;;;;;;14.87;64.43;100874.88;2205884;80;33390;-65
2022/06/18 00:08:08;;;;;;;8.00;5.00;;;;;;;14.88;64.68;100869.38;2205661;80;30378;-69
2022/06/18 00:14:31;;;;;;;8.75;5.10;;;;;;;14.91;64.62;100860.23;2205635;80;29936;-63
2022/06/18 00:17:52;;;;;;;13.35;6.15;;;;;;;14.93;64.78;100854.76;2205876;80;32316;-65
2022/06/18 00:20:55;;;;;;;9.05;5.67;;;;;;;14.94;65.10;100860.05;2230982;79;33145;-65
2022/06/18 00:23:57;;;;;;;7.53;6.25;;;;;;;14.93;64.98;100855.61;2230490;79;30211;-64
2022/06/18 00:26:58;;;;;;;10.85;6.33;;;;;;;14.98;65.06;100857.56;2230659;79;27728;-64
2022/06/18 00:30:01;;;;;;;12.58;7.28;;;;;;;15.00;65.03;100856.12;2230517;79;29819;-64
2022/06/18 00:33:02;;;;;;;14.58;7.20;;;;;;;15.02;65.07;100853.73;2230797;79;31435;-63
2022/06/18 00:36:06;;;;;;;8.68;6.40;;;;;;;15.04;65.13;100850.47;2230415;79;34154;-69
2022/06/18 00:39:12;;;;;;;11.50;7.03;;;;;;;15.07;65.20;100844.47;2230841;79;30311;-70
2022/06/18 00:42:24;;;;;;;12.10;7.35;;;;;;;15.10;65.33;100853.28;2230674;79;27624;-69
2022/06/18 00:45:29;;;;;;;13.68;7.67;;;;;;;15.14;65.67;100851.25;2228316;79;28798;-68
2022/06/18 00:48:45;;;;;;;10.58;7.70;;;;;;;15.15;65.81;100853.00;2231384;79;31149;-70
2022/06/18 00:51:54;;;;;;;13.88;7.72;;;;;;;15.15;65.79;100843.05;2215010;79;33853;-63
2022/06/18 00:55:07;;;;;;;16.67;7.70;;;;;;;15.19;65.70;100841.06;2230892;79;29382;-65
2022/06/18 00:58:20;;;;;;;11.03;8.23;;;;;;;15.23;65.90;100837.19;2230592;79;27670;-64
2022/06/18 01:01:32;;;;;;;16.10;8.50;;;;;;;15.28;65.93;100842.33;2230460;79;28733;-64
2022/06/18 01:04:35;;;;;;;13.20;7.78;;;;;;;15.31;65.95;100831.33;2196970;79;31054;-64
2022/06/18 01:07:38;;;;;;;13.80;7.70;;;;;;;15.37;65.96;100840.41;2230800;79;34202;-64
2022/06/18 01:10:46;;;;;;;13.28;8.03;;;;;;;15.40;65.95;100832.12;2230366;79;30522;-64
2022/06/18 01:13:49;;;;;;;10.40;7.85;;;;;;;15.45;66.08;100830.02;2230952;79;27658;-66
2022/06/18 01:16:54;;;;;;;13.03;7.92;;;;;;;15.51;66.07;100835.52;2230853;79;28629;-65
2022/06/18 01:19:59;;;;;;;11.25;8.05;;;;;;;15.56;66.25;100835.23;2253858;78;31876;-65
2022/06/18 01:23:17;;;;;;;10.95;7.05;;;;;;;15.61;66.19;100837.17;2269384;78;33150;-64
2022/06/18 01:26:20;;;;;;;10.28;7.08;;;;;;;15.66;66.31;100836.38;2268868;78;29326;-65
2022/06/18 01:29:21;;;;;;;9.68;7.00;;;;;;;15.71;66.15;100832.06;2269579;78;27673;-64
2022/06/18 01:32:24;;;;;;;7.75;6.05;;;;;;;15.75;65.97;100825.48;2269107;78;30805;-66
2022/06/18 01:35:26;;;;;;;9.70;6.40;;;;;;;15.80;65.81;100820.66;2269057;78;32252;-65
2022/06/18 01:38:28;;;;;;;7.78;6.55;;;;;;;15.84;65.67;100818.16;2269469;78;33464;-68
2022/06/18 01:41:50;;;;;;;8.30;6.22;;;;;;;15.89;65.55;100813.34;2269030;78;30182;-68
2022/06/18 01:45:05;;;;;;;9.08;5.87;;;;;;;16.02;65.16;100812.08;2269059;78;28190;-69
2022/06/18 01:48:24;;;;;;;7.65;6.40;;;;;;;16.02;65.16;100812.08;2257089;78;29913;-69
2022/06/18 01:51:33;;;;;;;8.08;6.60;;;;;;;16.08;65.34;100806.76;2269329;78;31033;-67
2022/06/18 01:54:40;;;;;;;9.23;6.42;;;;;;;16.15;65.11;100804.52;2269339;78;33153;-65
2022/06/18 01:57:46;;;;;;;7.95;5.67;;;;;;;16.15;65.11;100804.52;2268229;77;29540;-64
2022/06/18 02:00:52;;;;;;;13.28;6.70;;;;;;;16.19;64.92;100801.55;2268982;78;27678;-64
2022/06/18 02:03:57;;;;;;;11.10;6.67;;;;;;;16.15;64.74;100772.97;2269358;78;28739;-65
2022/06/18 02:06:58;;;;;;;;;;;;;;;16.15;64.74;100772.97;2271198;78;30997;-67
2022/06/18 02:10:04;;;;;;;9.60;5.62;;;;;;;16.32;64.79;100793.47;2268822;78;34084;-65
2022/06/18 02:13:07;;;;;;;6.08;5.45;;;;;;;16.33;64.59;100788.45;2269502;78;29383;-64
2022/06/18 02:16:14;;;;;;;8.93;5.28;;;;;;;16.35;64.28;100780.25;2269012;78;27651;-68
2022/06/18 02:19:19;;;;;;;10.85;5.78;;;;;;;16.39;64.29;100786.70;2268932;77;29857;-66
2022/06/18 02:22:26;;;;;;;7.15;5.15;;;;;;;16.42;64.24;100778.86;2268376;78;31061;-66
2022/06/18 02:25:31;;;;;;;8.03;5.12;;;;;;;16.47;64.21;100779.43;2268880;78;33045;-68
2022/06/18 02:28:40;;;;;;;6.95;5.20;;;;;;;16.50;64.10;100780.58;2269590;78;29228;-65
2022/06/18 02:31:45;;;;;;;8.23;5.60;;;;;;;16.53;64.00;100780.38;2269195;78;27651;-65
2022/06/18 02:34:45;;;;;;;7.30;5.10;;;;;;;16.56;64.01;100777.95;2269077;78;29646;-65
2022/06/18 02:37:48;;;;;;;8.70;6.37;;;;;;;16.60;63.91;100782.66;2268881;78;31090;-65
2022/06/18 02:40:51;;;;;;;6.55;5.17;;;;;;;16.63;63.92;100778.40;2268943;78;34266;-66
2022/06/18 02:43:53;;;;;;;7.72;5.50;;;;;;;16.66;63.78;100780.91;2269142;78;30508;-67
2022/06/18 02:46:56;;;;;;;4.83;4.28;;;;;;;16.58;63.39;100760.25;2268990;78;28302;-68
2022/06/18 02:50:05;;;;;;;9.95;5.00;;;;;;;16.58;63.39;100760.25;2269192;78;29655;-70
2022/06/18 02:53:11;;;;;;;4.67;3.98;;;;;;;16.68;63.55;100772.20;2269230;78;31893;-68
2022/06/18 02:56:15;;;;;;;6.50;4.45;;;;;;;16.76;63.55;100779.80;2269227;78;33767;-70
2022/06/18 02:59:17;;;;;;;8.40;4.93;;;;;;;16.78;63.59;100780.56;2269473;78;30124;-66
2022/06/18 03:02:19;;;;;;;6.95;4.80;;;;;;;16.81;63.62;100784.38;2269080;78;27605;-70
2022/06/18 03:05:25;;;;;;;8.95;5.08;;;;;;;16.82;63.50;100773.47;2269093;78;30014;-66
2022/06/18 03:08:29;;;;;;;9.95;5.00;;;;;;;16.85;63.39;100779.15;2269465;78;31009;-70
2022/06/18 03:14:51;;;;;;;8.40;4.40;;;;;;;16.91;63.31;100784.16;2269185;78;30504;-66
2022/06/18 03:17:53;;;;;;;9.55;4.35;;;;;;;16.94;63.32;100774.95;2268934;78;27620;-65
2022/06/18 03:21:22;;;;;;;5.05;4.55;;;;;;;16.98;63.23;100779.22;2269069;77;29860;-70
2022/06/18 03:24:24;;;;;;;4.80;3.87;;;;;;;17.02;62.96;100782.09;2268992;78;32288;-68
2022/06/18 03:27:26;;;;;;;4.72;4.22;;;;;;;17.11;63.12;100774.67;2268900;78;33076;-69
2022/06/18 03:30:29;;;;;;;5.55;4.05;;;;;;;17.11;63.12;100774.67;2269003;78;30244;-65
2022/06/18 03:33:31;;;;;;;6.65;3.90;;;;;;;17.16;62.92;100779.77;2268968;78;27702;-69
2022/06/18 03:36:34;;;;;;;7.40;4.70;;;;;;;17.08;62.76;100754.58;2269011;78;29247;-65
2022/06/18 03:39:36;;;;;;;8.65;4.37;;;;;;;17.16;62.74;100751.33;2268365;78;32190;-65
2022/06/18 03:42:38;;;;;;;9.58;4.20;;;;;;;17.27;62.80;100752.82;2267946;78;33132;-64
2022/06/18 03:45:43;;;;;;;7.00;4.00;;;;;;;17.27;62.80;100752.82;2269372;78;29329;-64
2022/06/18 03:49:01;;;;;;;3.95;3.55;;;;;;;17.50;62.58;100767.05;2262192;78;27507;-69
2022/06/18 03:52:05;;;;;;;6.60;4.35;;;;;;;17.58;62.44;100770.06;2268850;78;29517;-66
2022/06/18 03:55:09;;;;;;;9.35;4.42;;;;;;;17.66;62.37;100771.75;2269490;78;31838;-65
2022/06/18 03:58:11;;;;;;;6.13;4.20;;;;;;;17.77;62.35;100770.98;2269679;78;33224;-64
2022/06/18 04:01:19;;;;;;;8.78;5.28;;;;;;;17.84;62.30;100765.97;2268999;78;30194;-64
2022/06/18 04:04:21;;;;;;;6.50;4.42;;;;;;;17.94;62.24;100771.59;2269204;78;27709;-64
2022/06/18 04:07:23;;;;;;;9.18;4.28;;;;;;;18.04;62.22;100771.31;2269357;78;29268;-65
2022/06/18 04:10:25;;;;;;;7.55;4.15;;;;;;;18.13;62.05;100764.34;2268940;78;31889;-68
2022/06/18 04:13:30;;;;;;;5.25;3.60;;;;;;;18.18;61.86;100764.38;2268944;78;34220;-65
2022/06/18 04:16:32;;;;;;;4.90;3.92;;;;;;;18.24;61.59;100760.33;2269183;78;30123;-65
2022/06/18 04:19:34;;;;;;;7.12;3.58;;;;;;;18.32;61.69;100761.99;2269550;77;27630;-65
2022/06/18 04:22:36;;;;;;;3.85;3.37;;;;;;;18.40;61.25;100761.89;2237203;78;29597;-68
2022/06/18 04:25:39;;;;;;;8.00;4.05;;;;;;;18.45;61.15;100763.27;2269692;78;31554;-70
2022/06/18 04:28:41;;;;;;;3.62;3.22;;;;;;;18.52;61.23;100761.84;2269415;78;33739;-66
2022/06/18 04:31:44;;;;;;;4.70;3.60;;;;;;;18.61;61.06;100764.84;2268988;78;30176;-68
2022/06/18 04:34:46;;;;;;;5.65;3.60;;;;;;;18.71;61.04;100764.98;2269412;78;27625;-65
2022/06/18 04:37:48;;;;;;;6.08;3.12;;;;;;;18.79;60.82;100762.55;2268945;78;29528;-70
2022/06/18 04:40:50;;;;;;;5.08;4.25;;;;;;;18.92;60.67;100752.47;2269110;78;32280;-69
2022/06/18 04:43:52;;;;;;;6.78;3.40;;;;;;;19.08;60.58;100744.52;2269114;78;34360;-68
2022/06/18 04:46:56;;;;;;;5.80;3.42;;;;;;;19.30;60.28;100741.47;2269176;78;30531;-67
2022/06/18 04:49:58;;;;;;;3.95;3.15;;;;;;;19.66;60.56;100732.70;2268930;78;27691;-65
2022/06/18 04:53:00;;;;;;;7.00;3.80;;;;;;;20.10;60.21;100742.31;2269294;78;29318;-65
2022/06/18 04:56:03;;;;;;;4.35;3.42;;;;;;;20.41;59.50;100735.15;2269145;78;32237;-69
2022/06/18 04:59:05;;;;;;;6.62;3.20;;;;;;;20.63;59.29;100732.82;2269579;78;33059;-68
2022/06/18 05:02:11;;;;;;;5.35;3.00;;;;;;;20.84;58.76;100728.44;2269150;78;30234;-70
2022/06/18 05:05:18;;;;;;;3.55;2.72;;;;;;;20.98;58.42;100724.02;2269603;78;27577;-69
2022/06/18 05:08:20;;;;;;;4.15;3.37;;;;;;;21.10;57.83;100722.94;2269157;78;29949;-68
2022/06/18 05:11:22;;;;;;;7.35;3.47;;;;;;;21.19;57.89;100730.80;2269084;78;31893;-65
2022/06/18 05:14:24;;;;;;;3.15;2.75;;;;;;;21.29;57.50;100723.16;2269497;78;33332;-70
2022/06/18 05:17:30;;;;;;;5.40;3.02;;;;;;;21.37;57.37;100721.48;2269087;78;29856;-69
2022/06/18 05:20:32;;;;;;;3.80;3.40;;;;;;;21.49;57.15;100725.50;2263482;78;27691;-69
2022/06/18 05:23:34;;;;;;;4.67;3.42;;;;;;;21.62;56.77;100729.36;2251842;79;30020;-68
2022/06/18 05:26:35;;;;;;;4.47;3.50;;;;;;;21.75;56.64;100726.41;2252440;78;32174;-69
2022/06/18 05:29:38;;;;;;;4.28;3.08;;;;;;;21.92;56.39;100726.25;2224438;80;35145;-67
2022/06/18 05:32:41;;;;;;;8.75;3.67;;;;;;;22.16;56.22;100724.50;2224586;78;30309;-67
2022/06/18 05:35:44;;;;;;;7.03;4.00;;;;;;;22.45;55.93;100716.86;2224962;80;27831;-65
2022/06/18 05:38:47;;;;;;;3.70;3.22;;;;;;;22.75;55.62;100720.42;2224445;80;29425;-66
2022/06/18 05:41:50;;;;;;;7.70;3.08;;;;;;;22.96;55.07;100711.20;2224506;80;31811;-68
2022/06/18 05:44:54;;;;;;;7.45;3.50;;;;;;;23.06;54.82;100706.08;2224306;80;33816;-68
2022/06/18 05:47:57;;;;;;;6.95;3.15;;;;;;;23.16;54.33;100709.27;2224821;80;29340;-66
2022/06/18 05:51:02;;;;;;;8.53;3.00;;;;;;;23.22;54.08;100697.78;2224350;80;27725;-66
2022/06/18 05:54:04;;;;;;;2.80;2.25;;;;;;;23.29;53.98;100709.83;2198405;80;28698;-66
2022/06/18 05:57:09;;;;;;;4.67;3.12;;;;;;;23.38;53.73;100716.27;2251673;78;32199;-70
2022/06/18 06:00:15;;;;;;;5.15;2.67;;;;;;;23.52;53.21;100698.52;2252246;79;33649;-68
2022/06/18 06:03:17;;;;;;;4.90;2.50;;;;;;;23.65;52.97;100695.45;2251481;79;29384;-68
2022/06/18 06:06:20;;;;;;;4.08;2.50;;;;;;;24.11;53.05;100702.30;2251906;78;27693;-66
2022/06/18 06:12:44;;;;;;;2.62;2.08;;;;;;;26.00;51.88;100696.88;2185651;81;32206;-66
2022/06/18 06:16:08;;;;;;;6.65;2.30;;;;;;;26.98;49.92;100704.87;2221317;80;34479;-69
2022/06/18 06:19:10;;;;;;;5.60;2.72;;;;;;;27.74;49.45;100698.49;2070502;85;29522;-67
2022/06/18 06:22:12;;;;;;;2.98;1.92;;;;;;;28.95;48.27;100699.39;2097242;84;28023;-67
2022/06/18 06:25:15;;;;;;;2.27;2.00;;;;;;;30.09;46.39;100691.83;2096883;84;29936;-68
2022/06/18 06:28:21;;;;;;;2.98;2.20;;;;;;;30.82;45.59;100694.11;2096363;84;32029;-70
2022/06/18 06:31:23;;;;;;;6.45;2.72;;;;;;;31.19;44.25;100690.69;2096694;84;32959;-67
2022/06/18 06:34:24;;;;;;;4.30;2.50;;;;;;;31.45;42.94;100684.97;2097200;84;29727;-71
2022/06/18 06:37:27;;;;;;;5.10;2.98;;;;;;;31.67;42.14;100681.03;2097297;84;27765;-65
2022/06/18 06:40:32;;;;;;;5.67;2.40;;;;;;;32.25;41.52;100678.88;2097710;84;29202;-69
2022/06/18 06:43:34;;;;;;;6.50;3.00;;;;;;;33.00;40.96;100664.00;2096875;84;31023;-68
2022/06/18 06:46:37;;;;;;;7.30;2.95;;;;;;;33.76;40.00;100666.64;2096942;84;33856;-67
2022/06/18 06:49:39;;;;;;;6.05;2.87;;;;;;;34.52;39.20;100660.44;2097055;84;30164;-68
2022/06/18 06:52:42;;;;;;;6.35;2.40;;;;;;;35.05;36.92;100654.09;2097417;84;27817;-59
2022/06/18 06:59:04;;;;;;;6.37;2.72;;;;;;;35.97;35.95;100643.97;2214145;79;32242;-60
2022/06/18 07:02:14;;;;;;;5.62;2.52;;;;;;;36.69;34.69;100651.96;2207053;79;34168;-60
2022/06/18 07:05:16;;;;;;;4.97;2.50;;;;;;;37.20;33.61;100641.16;2207964;79;29319;-63
2022/06/18 07:08:18;;;;;;;5.80;2.40;;;;;;;37.84;33.19;100637.45;2219903;79;28078;-59
2022/06/18 07:11:19;;;;;;;3.47;2.10;;;;;;;38.00;32.41;100624.62;2218071;79;29537;-59
2022/06/18 07:14:21;;;;;;;3.77;2.37;;;;;;;38.39;31.48;100625.34;2225491;79;31398;-59
2022/06/18 07:17:23;;;;;;;4.85;2.27;;;;;;;38.71;31.13;100623.32;2225547;78;34258;-58
2022/06/18 07:20:26;;;;;;;3.62;2.02;;;;;;;39.20;29.84;100631.89;2268628;76;30733;-58
2022/06/18 07:23:27;;;;;;;3.98;1.90;;;;;;;39.42;28.39;100625.44;2269607;76;27643;-57
2022/06/18 07:26:29;;;;;;;3.15;1.70;;;;;;;39.46;28.93;100625.22;2268794;78;29884;-58
2022/06/18 07:29:31;;;;;;;4.03;2.20;;;;;;;39.66;28.17;100616.18;2262461;78;31564;-62
2022/06/18 07:32:33;;;;;;;2.60;1.95;;;;;;;39.77;26.91;100607.92;2268675;76;34238;-58
2022/06/18 07:35:35;;;;;;;4.35;2.00;;;;;;;39.68;27.46;100604.72;2269194;76;29652;-58
2022/06/18 07:38:37;;;;;;;3.80;1.80;;;;;;;39.53;27.18;100601.17;2269236;78;27688;-59
2022/06/18 07:41:43;;;;;;;2.40;1.77;;;;;;;39.24;26.53;100599.97;2268928;76;29861;-59
2022/06/18 07:44:47;;;;;;;2.15;1.65;;;;;;;39.09;26.44;100609.59;2268202;78;27669;-60
2022/06/18 07:47:49;;;;;;;2.85;2.00;;;;;;;38.89;26.21;100607.63;2269126;76;33339;-60
2022/06/18 07:50:51;;;;;;;7.77;2.17;;;;;;;39.02;26.10;100602.77;2269501;78;30256;-60
2022/06/18 07:53:54;;;;;;;4.30;2.33;;;;;;;39.01;26.33;100601.08;2269009;78;27583;-58
2022/06/18 07:56:56;;;;;;;2.15;1.70;;;;;;;39.12;26.31;100603.47;2261985;77;29909;-58
2022/06/18 07:59:58;;;;;;;2.55;1.70;;;;;;;39.30;26.05;100597.54;2268722;78;32331;-58
2022/06/18 08:02:59;;;;;;;3.20;1.60;;;;;;;39.33;25.77;100595.62;2268743;78;34172;-59
2022/06/18 08:06:01;;;;;;;3.22;1.62;;;;;;;39.22;25.31;100592.38;2257837;76;29096;-58
2022/06/18 08:09:03;;;;;;;6.45;1.45;;;;;;;39.34;25.02;100584.70;2228518;79;27692;-60
2022/06/18 08:12:06;;;;;;;1.67;1.30;;;;;;;39.56;24.85;100592.78;2228577;79;29936;-59
2022/06/18 08:15:09;;;;;;;3.35;1.10;;;;;;;39.64;23.91;100597.36;2229198;79;31829;-58
2022/06/18 08:18:11;;;;;;;3.22;1.57;;;;;;;39.73;23.69;100594.09;2253238;77;33988;-58
2022/06/18 08:21:25;;;;;;;3.25;2.30;;;;;;;39.61;23.09;100597.05;2269570;78;29546;-58
2022/06/18 08:24:27;;;;;;;1.85;1.70;;;;;;;39.57;23.20;100594.47;2269632;78;27715;-59
2022/06/18 08:27:31;;;;;;;4.50;1.65;;;;;;;39.68;23.40;100579.47;2269359;78;29880;-59
2022/06/18 08:30:33;;;;;;;1.30;1.20;;;;;;;39.66;23.42;100580.30;2269200;78;32168;-58
2022/06/18 08:33:36;;;;;;;2.58;1.77;;;;;;;39.65;22.86;100577.19;2268639;78;34143;-58
2022/06/18 08:36:39;;;;;;;3.67;1.40;;;;;;;39.72;23.00;100575.58;2269725;78;29487;-58
2022/06/18 08:39:42;;;;;;;2.80;1.17;;;;;;;39.60;21.68;100565.91;2269481;78;27679;-59
2022/06/18 08:42:59;;;;;;;4.17;1.20;;;;;;;39.36;21.59;100564.84;2269434;78;29771;-58
2022/06/18 08:46:29;;;;;;;2.35;1.47;;;;;;;39.13;21.75;100554.72;2269003;78;32294;-58
2022/06/18 08:49:57;;;;;;;1.52;1.40;;;;;;;39.02;22.16;100549.55;2269416;78;33892;-58
2022/06/18 08:53:39;;;;;;;1.32;1.20;;;;;;;38.86;21.93;100547.95;2269513;78;30281;-58
2022/06/18 08:57:01;;;;;;;1.47;1.30;;;;;;;38.84;22.21;100536.15;2163693;80;27742;-58
2022/06/18 09:00:36;;;;;;;2.00;1.10;;;;;;;38.73;21.35;100530.06;2261284;78;29599;-59
2022/06/18 09:04:06;;;;;;;7.75;1.37;;;;;;;38.48;21.68;100523.55;2269056;78;32288;-60
2022/06/18 09:07:32;;;;;;;5.87;1.98;;;;;;;38.36;21.49;100518.05;2268902;76;33003;-60
2022/06/18 09:11:04;;;;;;;3.75;1.65;;;;;;;38.17;22.29;100520.27;2267132;78;30506;-59
2022/06/18 09:14:35;;;;;;;5.33;2.02;;;;;;;38.18;21.61;100517.77;2269339;78;27693;-57
2022/06/18 09:17:51;;;;;;;3.37;1.45;;;;;;;38.04;22.30;100522.88;2268117;78;29908;-60
2022/06/18 09:21:01;;;;;;;3.72;1.50;;;;;;;37.94;21.97;100513.77;2269148;76;31576;-60
2022/06/18 09:24:05;;;;;;;4.95;1.67;;;;;;;37.73;21.77;100511.98;2259199;78;33076;-60
2022/06/18 09:27:18;;;;;;;2.40;1.22;;;;;;;37.59;22.21;100512.00;2269239;78;30084;-59
2022/06/18 09:30:31;;;;;;;2.62;1.52;;;;;;;37.46;21.82;100511.23;2269093;78;27586;-59
2022/06/18 09:33:38;;;;;;;10.95;2.60;;;;;;;37.36;21.28;100506.27;2268422;78;29847;-60
2022/06/18 09:36:46;;;;;;;3.90;1.20;;;;;;;37.13;21.73;100497.44;2268762;78;31882;-56
2022/06/18 09:39:52;;;;;;;3.08;1.70;;;;;;;37.05;21.74;100497.28;2268543;78;33573;-58
2022/06/18 09:43:05;;;;;;;4.30;1.80;;;;;;;36.95;21.83;100492.86;2257342;78;30141;-59
2022/06/18 09:46:12;;;;;;;3.98;1.40;;;;;;;36.74;21.40;100495.19;2269896;77;27673;-58
2022/06/18 09:49:15;;;;;;;1.90;1.35;;;;;;;36.49;21.74;100495.47;2268068;76;29869;-61
2022/06/18 09:52:39;;;;;;;2.80;1.57;;;;;;;36.34;21.91;100490.38;2268885;76;32330;-58
2022/06/18 09:55:45;;;;;;;2.22;1.35;;;;;;;36.16;21.31;100483.83;2269341;78;34138;-59
2022/06/18 09:58:52;;;;;;;1.87;1.60;;;;;;;35.79;21.79;100475.64;2268619;78;30494;-59
2022/06/18 10:01:55;;;;;;;2.37;1.32;;;;;;;35.58;22.49;100474.27;2265824;76;27671;-60
2022/06/18 10:08:22;;;;;;;5.53;1.32;;;;;;;35.09;22.99;100461.25;2269120;76;32212;-59
2022/06/18 10:11:24;;;;;;;5.27;2.47;;;;;;;34.93;23.00;100454.38;2269386;76;34074;-59
2022/06/18 10:14:26;;;;;;;1.72;1.62;;;;;;;34.70;23.67;100460.65;2269102;76;30729;-59
2022/06/18 10:17:43;;;;;;;8.45;1.40;;;;;;;34.53;23.69;100453.48;2268393;76;28273;-59
2022/06/18 10:21:05;;;;;;;4.75;1.60;;;;;;;34.37;23.65;100452.11;2233311;78;29960;-59
2022/06/18 10:24:55;;;;;;;4.83;1.62;;;;;;;34.15;23.70;100455.36;2216910;78;31074;-63
2022/06/18 10:28:44;;;;;;;2.98;2.12;;;;;;;33.95;24.28;100446.35;2202713;79;34150;-61
2022/06/18 10:32:17;;;;;;;2.65;1.45;;;;;;;33.71;24.28;100447.48;2182071;80;29930;-59
2022/06/18 10:35:27;;;;;;;3.10;1.82;;;;;;;33.44;24.52;100438.81;2209425;80;27687;-59
2022/06/18 10:38:57;;;;;;;2.55;1.10;;;;;;;33.28;24.95;100432.38;2213372;79;29572;-59
2022/06/18 10:42:37;;;;;;;4.15;1.80;;;;;;;33.10;24.75;100428.42;2214401;79;31568;-61
2022/06/18 10:46:02;;;;;;;4.15;1.77;;;;;;;32.90;25.26;100416.61;2212557;80;34165;-61
2022/06/18 10:49:05;;;;;;;2.77;1.62;;;;;;;32.79;25.34;100393.98;2200876;80;30117;-61
2022/06/18 10:52:23;;;;;;;4.92;1.52;;;;;;;32.70;25.86;100416.13;2216351;79;27678;-61
2022/06/18 10:55:24;;;;;;;2.35;1.50;;;;;;;32.61;25.17;100402.17;2211752;79;29149;-62
2022/06/18 10:58:26;;;;;;;4.62;1.12;;;;;;;32.43;26.13;100406.54;2215263;79;33203;-62
2022/06/18 11:01:39;;;;;;;5.92;2.10;;;;;;;32.36;25.66;100409.30;2213249;79;34352;-67
2022/06/18 11:04:41;;;;;;;2.72;1.95;;;;;;;32.33;26.17;100406.13;2211247;79;30478;-63
2022/06/18 11:07:49;;;;;;;3.20;1.47;;;;;;;32.29;26.31;100401.56;2214375;80;27895;-61
2022/06/18 11:11:09;;;;;;;2.37;1.30;;;;;;;32.16;26.66;100388.55;2200271;79;28623;-61
2022/06/18 11:14:17;;;;;;;2.25;1.47;;;;;;;32.05;26.18;100385.06;2209934;80;31677;-59
2022/06/18 11:17:41;;;;;;;1.22;0.98;;;;;;;31.92;26.70;100387.32;2214661;79;33805;-61
2022/06/18 11:20:59;;;;;;;3.65;1.60;;;;;;;31.85;26.73;100378.19;2250059;79;30158;-61
2022/06/18 11:24:15;;;;;;;4.25;1.92;;;;;;;31.84;27.30;100373.16;2240426;79;28207;-60
2022/06/18 11:27:18;;;;;;;2.70;1.40;;;;;;;31.86;27.47;100366.01;2250406;79;29479;-60
2022/06/18 11:30:37;;;;;;;2.02;1.62;;;;;;;31.82;27.19;100374.77;2250540;77;33174;-66
2022/06/18 11:33:42;;;;;;;2.87;1.60;;;;;;;31.79;26.95;100368.79;2210234;79;32969;-60
2022/06/18 11:36:48;;;;;;;2.80;1.32;;;;;;;31.69;26.75;100362.27;2248439;79;29329;-66
2022/06/18 11:39:57;;;;;;;2.77;1.47;;;;;;;31.61;27.18;100358.34;2242381;77;27606;-60
2022/06/18 11:43:04;;;;;;;2.25;1.70;;;;;;;31.58;27.61;100358.77;2251339;79;29576;-60
2022/06/18 11:46:12;;;;;;;7.33;1.47;;;;;;;31.55;27.33;100355.04;2250787;77;31940;-61
2022/06/18 11:49:30;;;;;;;2.02;1.35;;;;;;;31.53;27.74;100342.80;2250408;79;33716;-61
2022/06/18 11:52:58;;;;;;;4.65;1.27;;;;;;;31.49;27.49;100333.22;2251228;79;30401;-62
2022/06/18 11:56:03;;;;;;;1.30;1.20;;;;;;;31.48;27.38;100336.53;2250308;79;28289;-62
2022/06/18 11:59:15;;;;;;;1.57;1.47;;;;;;;31.47;27.63;100332.06;2250885;79;28637;-64
2022/06/18 12:02:50;;;;;;;7.92;1.75;;;;;;;31.47;27.76;100332.57;2251727;79;31069;-62
2022/06/18 12:05:57;;;;;;;4.40;1.60;;;;;;;31.43;27.72;100327.17;2251034;79;34159;-67
2022/06/18 12:08:59;;;;;;;5.37;1.55;;;;;;;31.36;27.69;100322.98;2251229;79;29346;-65
2022/06/18 12:12:34;;;;;;;2.27;1.45;;;;;;;31.27;27.80;100311.83;2251333;79;27718;-60
2022/06/18 12:16:25;;;;;;;3.22;1.75;;;;;;;31.18;28.14;100305.65;2251366;79;29660;-61
2022/06/18 12:19:51;;;;;;;1.85;1.35;;;;;;;31.10;28.22;100306.68;2242297;79;32274;-61
2022/06/18 12:23:19;;;;;;;2.08;1.55;;;;;;;31.05;28.44;100308.70;2205877;79;33503;-61
2022/06/18 12:26:38;;;;;;;2.67;1.75;;;;;;;31.02;28.56;100305.52;2211363;79;29529;-61
2022/06/18 12:30:11;;;;;;;7.95;1.90;;;;;;;30.97;28.45;100298.37;2221220;79;28141;-61
2022/06/18 12:33:27;;;;;;;4.72;2.20;;;;;;;30.89;28.71;100293.34;2232020;79;29585;-60
2022/06/18 12:36:52;;;;;;;1.60;1.50;;;;;;;30.83;28.95;100298.88;2232170;79;32171;-61
2022/06/18 12:40:11;;;;;;;1.92;1.40;;;;;;;30.80;28.41;100293.24;2232496;79;32983;-63
2022/06/18 12:43:35;;;;;;;3.72;1.70;;;;;;;30.73;28.30;100288.22;2232147;79;30498;-60
2022/06/18 12:47:01;;;;;;;2.25;1.80;;;;;;;30.70;28.88;100283.09;2231825;79;28027;-61
2022/06/18 12:50:14;;;;;;;2.47;1.85;;;;;;;30.67;29.01;100280.78;2232790;79;29027;-69
2022/06/18 12:53:53;;;;;;;2.10;1.90;;;;;;;30.59;29.30;100274.37;2225651;79;32244;-61
2022/06/18 12:57:24;;;;;;;2.67;1.75;;;;;;;30.54;29.04;100273.27;2232134;79;34177;-64
2022/06/18 13:00:59;;;;;;;2.70;1.72;;;;;;;30.51;29.23;100268.14;2232364;79;29766;-64
2022/06/18 13:04:48;;;;;;;2.37;1.70;;;;;;;30.52;29.25;100280.40;2232413;79;28252;-67
2022/06/18 13:08:16;;;;;;;2.45;1.57;;;;;;;30.47;29.16;100267.72;2232391;79;29023;-65
2022/06/18 13:11:33;;;;;;;2.15;1.62;;;;;;;30.40;29.80;100257.16;2232183;79;31881;-67
2022/06/18 13:15:29;;;;;;;5.62;1.50;;;;;;;30.34;29.48;100246.96;2232612;79;34144;-67
2022/06/18 13:18:39;;;;;;;3.67;1.60;;;;;;;30.37;29.29;100257.58;2194200;80;29489;-66
2022/06/18 13:21:41;;;;;;;3.35;1.82;;;;;;;30.36;29.31;100247.61;2212369;79;27707;-62
2022/06/18 13:28:23;;;;;;;3.35;1.65;;;;;;;30.33;29.55;100233.66;2251303;79;32128;-67
2022/06/18 13:32:07;;;;;;;2.00;1.50;;;;;;;30.31;29.49;100227.48;2251350;79;34126;-65
2022/06/18 13:35:35;;;;;;;4.17;1.67;;;;;;;30.28;29.85;100217.70;2211833;80;28737;-62
2022/06/18 13:38:46;;;;;;;4.70;1.55;;;;;;;30.27;29.85;100227.05;2211573;80;27762;-61
2022/06/18 13:41:56;;;;;;;2.87;1.65;;;;;;;30.27;30.01;100218.77;2212947;79;28666;-62
2022/06/18 13:45:39;;;;;;;2.52;1.37;;;;;;;30.24;29.73;100220.55;2251691;79;31008;-62
2022/06/18 13:49:01;;;;;;;5.03;1.42;;;;;;;30.18;29.77;100213.63;2251590;79;33827;-64
2022/06/18 13:52:05;;;;;;;3.80;1.72;;;;;;;30.12;30.08;100208.41;2250621;79;30209;-62
2022/06/18 13:55:08;;;;;;;1.90;1.65;;;;;;;30.10;30.07;100203.11;2213038;79;27708;-62
2022/06/18 13:58:34;;;;;;;4.33;1.52;;;;;;;30.10;29.80;100203.11;2211443;80;28620;-65
2022/06/18 14:01:50;;;;;;;1.70;1.10;;;;;;;30.11;30.12;100192.89;2211640;80;30760;-62
2022/06/18 14:05:20;;;;;;;2.98;1.40;;;;;;;30.11;29.72;100190.13;2210926;80;33085;-65
2022/06/18 14:08:27;;;;;;;3.85;1.47;;;;;;;30.12;29.81;100185.77;2211679;80;29707;-66
2022/06/18 14:11:37;;;;;;;2.67;1.80;;;;;;;30.13;29.87;100179.72;2211563;80;27643;-61
2022/06/18 14:14:42;;;;;;;6.42;1.60;;;;;;;30.12;29.99;100178.86;2249576;79;29454;-64
2022/06/18 14:17:51;;;;;;;2.42;1.45;;;;;;;30.09;29.99;100176.53;2251546;79;31031;-62
2022/06/18 14:21:00;;;;;;;4.95;1.50;;;;;;;30.07;29.98;100181.41;2251200;79;32958;-61
2022/06/18 14:24:04;;;;;;;3.05;1.37;;;;;;;30.05;29.74;100169.71;2251583;79;30157;-61
2022/06/18 14:27:10;;;;;;;4.00;2.13;;;;;;;30.03;30.29;100170.45;2251846;79;27706;-61
2022/06/18 14:30:31;;;;;;;2.42;2.00;;;;;;;30.04;30.14;100161.61;2221504;79;28638;-63
2022/06/18 14:33:58;;;;;;;2.12;1.40;;;;;;;30.06;30.14;100162.27;2250477;79;31436;-63
2022/06/18 14:37:06;;;;;;;8.08;2.40;;;;;;;30.06;30.39;100153.46;2251257;79;33017;-61
2022/06/18 14:40:12;;;;;;;4.05;1.70;;;;;;;30.05;30.27;100157.80;2251644;79;29325;-61
2022/06/18 14:43:54;;;;;;;2.98;1.70;;;;;;;30.06;30.09;100147.06;2250219;79;27633;-61
2022/06/18 14:47:22;;;;;;;5.40;2.47;;;;;;;30.06;30.42;100151.21;2251726;79;28708;-61
2022/06/18 14:50:53;;;;;;;6.00;2.17;;;;;;;30.04;30.66;100145.91;2237672;79;31269;-62
2022/06/18 14:54:29;;;;;;;4.78;2.35;;;;;;;30.04;30.70;100143.14;2252124;79;33720;-60
2022/06/18 14:58:08;;;;;;;5.55;2.35;;;;;;;30.05;30.69;100150.89;2251617;79;29549;-61
2022/06/18 15:01:43;;;;;;;3.02;2.42;;;;;;;30.06;30.92;100133.25;2250288;79;27856;-61
2022/06/18 15:04:58;;;;;;;2.00;1.80;;;;;;;30.05;30.71;100128.27;2235295;78;28468;-60